LHA8LH KPAE-KBZN
Flight info
| Callsign | LHA8LH |
|---|---|
| Flight time | 1h 13m |
| Altitude | 41000 |
| Route | SEA DCT NORMY DCT MODDA DCT STEVS DCT EATZZ |
| Aircraft | B737/M-SDE1E2FGIJ1RWYZ/S |
Departure
| Time | 2026-04-27 14:18 |
|---|---|
| Airport | Seattle Paine Field International Airport (KPAE) |
Arrival
| Time | 2026-04-27 15:31 |
|---|---|
| Airport | Bozeman Yellowstone International Airport (KBZN) |
| Time | Latitude | Longitude | Altitude | Speed | Heading |
|---|---|---|---|---|---|
| 2026-04-27 14:05 | 47.91804 | -122.28176 | 569 ft | 0 kts | 270° |
| 2026-04-27 14:10 | 47.91804 | -122.28175 | 559 ft | 2 kts | 270° |
| 2026-04-27 14:11 | 47.91804 | -122.28170 | 559 ft | 0 kts | 270° |
| 2026-04-27 14:12 | 47.91803 | -122.28136 | 569 ft | 5 kts | 275° |
| 2026-04-27 14:13 | 47.91799 | -122.28093 | 569 ft | 3 kts | 287° |
| 2026-04-27 14:13 | 47.91792 | -122.28069 | 569 ft | 2 kts | 308° |
| 2026-04-27 14:13 | 47.91782 | -122.28055 | 576 ft | 3 kts | 334° |
| 2026-04-27 14:13 | 47.91766 | -122.28049 | 569 ft | 2 kts | 355° |
| 2026-04-27 14:14 | 47.91755 | -122.28048 | 570 ft | 2 kts | 359° |
| 2026-04-27 14:14 | 47.91749 | -122.28048 | 570 ft | 0 kts | 360° |
| 2026-04-27 14:15 | 47.91751 | -122.28048 | 571 ft | 1 kts | 360° |
| 2026-04-27 14:15 | 47.91780 | -122.28048 | 572 ft | 7 kts | 359° |
| 2026-04-27 14:15 | 47.91838 | -122.28048 | 568 ft | 10 kts | 0° |
| 2026-04-27 14:15 | 47.91924 | -122.28047 | 571 ft | 14 kts | 360° |
| 2026-04-27 14:16 | 47.92032 | -122.28047 | 569 ft | 16 kts | 0° |
| 2026-04-27 14:16 | 47.92139 | -122.28055 | 569 ft | 15 kts | 338° |
| 2026-04-27 14:16 | 47.92167 | -122.28196 | 570 ft | 14 kts | 272° |
| 2026-04-27 14:16 | 47.92163 | -122.28342 | 576 ft | 14 kts | 263° |
| 2026-04-27 14:17 | 47.92154 | -122.28482 | 573 ft | 13 kts | 264° |
| 2026-04-27 14:17 | 47.92127 | -122.28578 | 577 ft | 10 kts | 198° |
| 2026-04-27 14:17 | 47.91973 | -122.28583 | 572 ft | 53 kts | 179° |
| 2026-04-27 14:17 | 47.91338 | -122.28565 | 577 ft | 125 kts | 178° |
| 2026-04-27 14:18 | 47.90369 | -122.28550 | 1112 ft | 138 kts | 180° |
| 2026-04-27 14:18 | 47.89478 | -122.28589 | 2223 ft | 122 kts | 181° |
| 2026-04-27 14:18 | 47.88560 | -122.28635 | 2863 ft | 141 kts | 182° |
| 2026-04-27 14:18 | 47.87436 | -122.28684 | 3195 ft | 181 kts | 182° |
| 2026-04-27 14:19 | 47.86069 | -122.28743 | 3500 ft | 211 kts | 182° |
| 2026-04-27 14:19 | 47.84531 | -122.28813 | 3946 ft | 227 kts | 182° |
| 2026-04-27 14:19 | 47.82919 | -122.28890 | 4541 ft | 238 kts | 183° |
| 2026-04-27 14:19 | 47.81197 | -122.28975 | 5004 ft | 257 kts | 184° |
| 2026-04-27 14:20 | 47.79358 | -122.29070 | 5775 ft | 268 kts | 184° |
| 2026-04-27 14:20 | 47.77483 | -122.29167 | 6884 ft | 271 kts | 184° |
| 2026-04-27 14:20 | 47.75570 | -122.29267 | 7882 ft | 280 kts | 184° |
| 2026-04-27 14:20 | 47.73597 | -122.29372 | 8977 ft | 286 kts | 184° |
| 2026-04-27 14:21 | 47.71589 | -122.29482 | 10102 ft | 292 kts | 184° |
| 2026-04-27 14:21 | 47.69503 | -122.29596 | 10830 ft | 313 kts | 184° |
| 2026-04-27 14:21 | 47.67236 | -122.29721 | 11390 ft | 334 kts | 183° |
| 2026-04-27 14:21 | 47.64877 | -122.29849 | 12327 ft | 343 kts | 183° |
| 2026-04-27 14:22 | 47.62472 | -122.29977 | 13375 ft | 349 kts | 183° |
| 2026-04-27 14:22 | 47.60018 | -122.30109 | 14351 ft | 357 kts | 183° |
| 2026-04-27 14:22 | 47.57545 | -122.30242 | 15268 ft | 364 kts | 183° |
| 2026-04-27 14:22 | 47.54988 | -122.30380 | 16227 ft | 372 kts | 183° |
| 2026-04-27 14:23 | 47.52382 | -122.30522 | 17173 ft | 379 kts | 183° |
| 2026-04-27 14:23 | 47.49717 | -122.30443 | 18083 ft | 389 kts | 171° |
| 2026-04-27 14:23 | 47.47154 | -122.29087 | 18954 ft | 395 kts | 148° |
| 2026-04-27 14:23 | 47.45089 | -122.26476 | 19955 ft | 391 kts | 126° |
| 2026-04-27 14:24 | 47.43780 | -122.23003 | 20920 ft | 387 kts | 105° |
| 2026-04-27 14:24 | 47.43314 | -122.19117 | 21807 ft | 385 kts | 88° |
| 2026-04-27 14:24 | 47.43268 | -122.15151 | 22667 ft | 389 kts | 86° |
| 2026-04-27 14:24 | 47.43273 | -122.11123 | 23491 ft | 395 kts | 86° |
| 2026-04-27 14:25 | 47.43282 | -122.07048 | 24208 ft | 399 kts | 86° |
| 2026-04-27 14:25 | 47.43279 | -122.02928 | 24917 ft | 403 kts | 87° |
| 2026-04-27 14:25 | 47.43259 | -121.98765 | 25606 ft | 408 kts | 87° |
| 2026-04-27 14:25 | 47.43228 | -121.94557 | 26271 ft | 412 kts | 87° |
| 2026-04-27 14:26 | 47.43190 | -121.90300 | 26928 ft | 417 kts | 88° |
| 2026-04-27 14:26 | 47.43148 | -121.86000 | 27550 ft | 421 kts | 88° |
| 2026-04-27 14:26 | 47.43103 | -121.81653 | 28160 ft | 426 kts | 88° |
| 2026-04-27 14:26 | 47.43057 | -121.77264 | 28743 ft | 430 kts | 88° |
| 2026-04-27 14:27 | 47.43010 | -121.72829 | 29348 ft | 434 kts | 88° |
| 2026-04-27 14:27 | 47.42944 | -121.68349 | 29935 ft | 438 kts | 88° |
| 2026-04-27 14:27 | 47.42853 | -121.63825 | 30423 ft | 443 kts | 89° |
| 2026-04-27 14:27 | 47.42759 | -121.59268 | 30878 ft | 446 kts | 89° |
| 2026-04-27 14:28 | 47.42662 | -121.54683 | 31335 ft | 448 kts | 89° |
| 2026-04-27 14:28 | 47.42371 | -121.50080 | 31757 ft | 454 kts | 97° |
| 2026-04-27 14:28 | 47.41649 | -121.45510 | 32173 ft | 459 kts | 102° |
| 2026-04-27 14:28 | 47.40817 | -121.40944 | 32552 ft | 462 kts | 102° |
| 2026-04-27 14:29 | 47.39959 | -121.36366 | 32904 ft | 465 kts | 102° |
| 2026-04-27 14:29 | 47.39097 | -121.31761 | 33325 ft | 465 kts | 102° |
| 2026-04-27 14:29 | 47.38247 | -121.27166 | 33877 ft | 463 kts | 102° |
| 2026-04-27 14:29 | 47.37413 | -121.22596 | 34366 ft | 461 kts | 102° |
| 2026-04-27 14:30 | 47.36587 | -121.18030 | 34718 ft | 461 kts | 102° |
| 2026-04-27 14:30 | 47.35762 | -121.13446 | 35021 ft | 463 kts | 102° |
| 2026-04-27 14:30 | 47.34935 | -121.08853 | 35353 ft | 464 kts | 102° |
| 2026-04-27 14:30 | 47.34105 | -121.04260 | 35756 ft | 463 kts | 102° |
| 2026-04-27 14:31 | 47.33275 | -120.99679 | 36152 ft | 462 kts | 102° |
| 2026-04-27 14:31 | 47.32442 | -120.95101 | 36475 ft | 463 kts | 102° |
| 2026-04-27 14:31 | 47.31606 | -120.90512 | 36780 ft | 464 kts | 102° |
| 2026-04-27 14:31 | 47.30766 | -120.85916 | 37137 ft | 464 kts | 102° |
| 2026-04-27 14:32 | 47.29927 | -120.81340 | 37489 ft | 463 kts | 102° |
| 2026-04-27 14:32 | 47.29085 | -120.76757 | 37810 ft | 464 kts | 102° |
| 2026-04-27 14:32 | 47.28240 | -120.72168 | 38164 ft | 464 kts | 102° |
| 2026-04-27 14:32 | 47.27395 | -120.67594 | 38551 ft | 462 kts | 102° |
| 2026-04-27 14:33 | 47.26552 | -120.63034 | 38834 ft | 462 kts | 102° |
| 2026-04-27 14:33 | 47.25704 | -120.58460 | 39072 ft | 463 kts | 102° |
| 2026-04-27 14:33 | 47.25142 | -120.55436 | 39231 ft | 463 kts | 102° |
| 2026-04-27 14:33 | 47.24409 | -120.50836 | 39520 ft | 460 kts | 98° |
| 2026-04-27 14:34 | 47.23854 | -120.46206 | 39805 ft | 459 kts | 96° |
| 2026-04-27 14:34 | 47.23359 | -120.41572 | 40055 ft | 459 kts | 96° |
| 2026-04-27 14:34 | 47.22883 | -120.36928 | 40286 ft | 459 kts | 96° |
| 2026-04-27 14:34 | 47.22405 | -120.32287 | 40529 ft | 459 kts | 96° |
| 2026-04-27 14:35 | 47.21917 | -120.27652 | 40788 ft | 458 kts | 96° |
| 2026-04-27 14:35 | 47.21418 | -120.23017 | 40972 ft | 460 kts | 97° |
| 2026-04-27 14:35 | 47.20906 | -120.18350 | 40947 ft | 463 kts | 97° |
| 2026-04-27 14:36 | 47.19858 | -120.09004 | 40957 ft | 461 kts | 97° |
| 2026-04-27 14:36 | 47.18807 | -119.99751 | 40943 ft | 457 kts | 97° |
| 2026-04-27 14:37 | 47.17756 | -119.90555 | 40939 ft | 455 kts | 97° |
| 2026-04-27 14:37 | 47.16703 | -119.81404 | 40952 ft | 454 kts | 97° |
| 2026-04-27 14:38 | 47.15653 | -119.72334 | 40954 ft | 453 kts | 97° |
| 2026-04-27 14:38 | 47.14590 | -119.63217 | 40961 ft | 453 kts | 98° |
| 2026-04-27 14:39 | 47.13518 | -119.54084 | 40983 ft | 455 kts | 98° |
| 2026-04-27 14:39 | 47.12433 | -119.44916 | 40990 ft | 456 kts | 98° |
| 2026-04-27 14:40 | 47.11337 | -119.35717 | 40980 ft | 458 kts | 98° |
| 2026-04-27 14:40 | 47.10229 | -119.26491 | 40981 ft | 460 kts | 98° |
| 2026-04-27 14:41 | 47.09112 | -119.17245 | 40981 ft | 461 kts | 98° |
| 2026-04-27 14:41 | 47.07983 | -119.07972 | 40971 ft | 462 kts | 98° |
| 2026-04-27 14:42 | 47.06847 | -118.98707 | 40960 ft | 462 kts | 98° |
| 2026-04-27 14:42 | 47.05702 | -118.89440 | 40954 ft | 462 kts | 98° |
| 2026-04-27 14:43 | 47.04551 | -118.80182 | 40949 ft | 461 kts | 98° |
| 2026-04-27 14:43 | 47.03394 | -118.70937 | 40952 ft | 461 kts | 98° |
| 2026-04-27 14:44 | 47.02232 | -118.61712 | 40949 ft | 460 kts | 98° |
| 2026-04-27 14:44 | 47.01061 | -118.52487 | 40954 ft | 460 kts | 98° |
| 2026-04-27 14:45 | 46.99885 | -118.43279 | 40952 ft | 460 kts | 98° |
| 2026-04-27 14:45 | 46.98701 | -118.34074 | 40955 ft | 460 kts | 98° |
| 2026-04-27 14:46 | 46.97509 | -118.24867 | 40952 ft | 460 kts | 99° |
| 2026-04-27 14:46 | 46.96447 | -118.16714 | 40956 ft | 461 kts | 99° |
| 2026-04-27 14:47 | 46.95240 | -118.07503 | 40953 ft | 461 kts | 99° |
| 2026-04-27 14:47 | 46.94022 | -117.98275 | 40955 ft | 462 kts | 99° |
| 2026-04-27 14:48 | 46.92796 | -117.89044 | 40958 ft | 462 kts | 99° |
| 2026-04-27 14:48 | 46.90941 | -117.75186 | 40963 ft | 463 kts | 99° |
| 2026-04-27 14:49 | 46.89693 | -117.65943 | 40967 ft | 464 kts | 99° |
| 2026-04-27 14:49 | 46.88436 | -117.56690 | 40966 ft | 464 kts | 99° |
| 2026-04-27 14:50 | 46.87170 | -117.47433 | 40980 ft | 464 kts | 99° |
| 2026-04-27 14:50 | 46.85899 | -117.38194 | 40988 ft | 464 kts | 99° |
| 2026-04-27 14:51 | 46.84620 | -117.28955 | 40993 ft | 464 kts | 100° |
| 2026-04-27 14:51 | 46.83552 | -117.21289 | 40996 ft | 463 kts | 100° |
| 2026-04-27 14:52 | 46.82052 | -117.10577 | 40999 ft | 463 kts | 100° |
| 2026-04-27 14:52 | 46.80754 | -117.01378 | 41000 ft | 463 kts | 100° |
| 2026-04-27 14:53 | 46.79449 | -116.92180 | 40998 ft | 462 kts | 100° |
| 2026-04-27 14:53 | 46.78138 | -116.83001 | 40998 ft | 462 kts | 100° |
| 2026-04-27 14:54 | 46.76820 | -116.73831 | 40999 ft | 462 kts | 100° |
| 2026-04-27 14:54 | 46.75496 | -116.64668 | 40994 ft | 462 kts | 101° |
| 2026-04-27 14:55 | 46.74163 | -116.55503 | 40991 ft | 462 kts | 101° |
| 2026-04-27 14:55 | 46.72822 | -116.46336 | 40995 ft | 463 kts | 101° |
| 2026-04-27 14:56 | 46.71473 | -116.37163 | 41004 ft | 463 kts | 101° |
| 2026-04-27 14:56 | 46.70114 | -116.27982 | 41013 ft | 464 kts | 101° |
| 2026-04-27 14:57 | 46.68747 | -116.18800 | 41017 ft | 464 kts | 101° |
| 2026-04-27 14:57 | 46.67371 | -116.09614 | 41027 ft | 464 kts | 101° |
| 2026-04-27 14:58 | 46.65986 | -116.00423 | 41032 ft | 465 kts | 101° |
| 2026-04-27 14:58 | 46.64594 | -115.91234 | 41039 ft | 465 kts | 101° |
| 2026-04-27 14:59 | 46.63193 | -115.82040 | 41042 ft | 465 kts | 101° |
| 2026-04-27 14:59 | 46.61784 | -115.72852 | 41054 ft | 465 kts | 101° |
| 2026-04-27 15:00 | 46.60368 | -115.63664 | 41049 ft | 465 kts | 102° |
| 2026-04-27 15:00 | 46.58954 | -115.54550 | 41060 ft | 465 kts | 102° |
| 2026-04-27 15:01 | 46.57526 | -115.45386 | 41070 ft | 465 kts | 102° |
| 2026-04-27 15:01 | 46.56089 | -115.36223 | 41071 ft | 465 kts | 102° |
| 2026-04-27 15:02 | 46.54644 | -115.27059 | 41073 ft | 465 kts | 102° |
| 2026-04-27 15:02 | 46.53192 | -115.17906 | 41076 ft | 465 kts | 102° |
| 2026-04-27 15:03 | 46.51732 | -115.08750 | 41085 ft | 465 kts | 102° |
| 2026-04-27 15:03 | 46.50266 | -114.99604 | 41078 ft | 465 kts | 102° |
| 2026-04-27 15:04 | 46.48792 | -114.90461 | 41081 ft | 465 kts | 102° |
| 2026-04-27 15:04 | 46.47311 | -114.81327 | 41085 ft | 465 kts | 103° |
| 2026-04-27 15:05 | 46.45822 | -114.72191 | 41077 ft | 465 kts | 103° |
| 2026-04-27 15:05 | 46.44327 | -114.63067 | 41079 ft | 465 kts | 103° |
| 2026-04-27 15:06 | 46.42824 | -114.53942 | 41075 ft | 465 kts | 103° |
| 2026-04-27 15:06 | 46.41312 | -114.44815 | 41073 ft | 466 kts | 103° |
| 2026-04-27 15:07 | 46.39791 | -114.35681 | 41070 ft | 466 kts | 103° |
| 2026-04-27 15:07 | 46.38262 | -114.26551 | 41066 ft | 467 kts | 103° |
| 2026-04-27 15:08 | 46.36727 | -114.17428 | 41074 ft | 466 kts | 103° |
| 2026-04-27 15:08 | 46.35183 | -114.08309 | 41066 ft | 466 kts | 103° |
| 2026-04-27 15:09 | 46.33635 | -113.99203 | 41066 ft | 466 kts | 103° |
| 2026-04-27 15:09 | 46.32077 | -113.90094 | 41061 ft | 466 kts | 104° |
| 2026-04-27 15:10 | 46.30512 | -113.80987 | 41055 ft | 467 kts | 104° |
| 2026-04-27 15:10 | 46.28940 | -113.71886 | 41057 ft | 467 kts | 104° |
| 2026-04-27 15:11 | 46.27360 | -113.62788 | 41050 ft | 466 kts | 104° |
| 2026-04-27 15:11 | 46.25773 | -113.53696 | 41053 ft | 466 kts | 104° |
| 2026-04-27 15:12 | 46.24975 | -113.49145 | 40803 ft | 471 kts | 104° |
| 2026-04-27 15:12 | 46.24165 | -113.44533 | 40205 ft | 474 kts | 104° |
| 2026-04-27 15:12 | 46.23355 | -113.39934 | 39572 ft | 473 kts | 104° |
| 2026-04-27 15:12 | 46.22542 | -113.35329 | 38864 ft | 473 kts | 104° |
| 2026-04-27 15:13 | 46.21726 | -113.30719 | 38015 ft | 475 kts | 104° |
| 2026-04-27 15:13 | 46.20906 | -113.26104 | 37212 ft | 474 kts | 104° |
| 2026-04-27 15:13 | 46.20087 | -113.21499 | 36424 ft | 473 kts | 104° |
| 2026-04-27 15:13 | 46.19267 | -113.16906 | 35594 ft | 473 kts | 104° |
| 2026-04-27 15:14 | 46.18444 | -113.12303 | 34670 ft | 475 kts | 104° |
| 2026-04-27 15:14 | 46.17614 | -113.07676 | 33639 ft | 478 kts | 104° |
| 2026-04-27 15:14 | 46.16784 | -113.03056 | 32886 ft | 472 kts | 105° |
| 2026-04-27 15:14 | 46.15964 | -112.98502 | 32152 ft | 466 kts | 105° |
| 2026-04-27 15:15 | 46.15155 | -112.94020 | 31473 ft | 459 kts | 105° |
| 2026-04-27 15:15 | 46.14353 | -112.89591 | 30810 ft | 453 kts | 105° |
| 2026-04-27 15:15 | 46.13559 | -112.85217 | 30165 ft | 448 kts | 105° |
| 2026-04-27 15:15 | 46.12773 | -112.80902 | 29405 ft | 442 kts | 105° |
| 2026-04-27 15:16 | 46.11997 | -112.76644 | 28697 ft | 436 kts | 105° |
| 2026-04-27 15:16 | 46.11241 | -112.72509 | 28027 ft | 429 kts | 105° |
| 2026-04-27 15:16 | 46.10484 | -112.68376 | 27342 ft | 424 kts | 105° |
| 2026-04-27 15:16 | 46.09734 | -112.64295 | 26689 ft | 419 kts | 105° |
| 2026-04-27 15:17 | 46.08992 | -112.60263 | 26015 ft | 414 kts | 105° |
| 2026-04-27 15:17 | 46.08257 | -112.56276 | 25374 ft | 410 kts | 106° |
| 2026-04-27 15:17 | 46.07527 | -112.52326 | 24726 ft | 406 kts | 106° |
| 2026-04-27 15:17 | 46.06801 | -112.48408 | 24082 ft | 403 kts | 106° |
| 2026-04-27 15:18 | 46.06079 | -112.44519 | 23377 ft | 401 kts | 106° |
| 2026-04-27 15:18 | 46.05362 | -112.40660 | 22664 ft | 397 kts | 107° |
| 2026-04-27 15:18 | 46.04650 | -112.36839 | 21978 ft | 393 kts | 107° |
| 2026-04-27 15:18 | 46.03946 | -112.33069 | 21360 ft | 387 kts | 107° |
| 2026-04-27 15:19 | 46.03250 | -112.29349 | 20719 ft | 383 kts | 107° |
| 2026-04-27 15:19 | 46.02792 | -112.26904 | 20302 ft | 380 kts | 107° |
| 2026-04-27 15:19 | 46.02106 | -112.23251 | 19691 ft | 376 kts | 107° |
| 2026-04-27 15:19 | 46.01427 | -112.19639 | 19082 ft | 372 kts | 107° |
| 2026-04-27 15:20 | 46.00752 | -112.16058 | 18475 ft | 369 kts | 107° |
| 2026-04-27 15:20 | 46.00081 | -112.12504 | 17789 ft | 366 kts | 107° |
| 2026-04-27 15:20 | 45.99417 | -112.08990 | 17171 ft | 362 kts | 107° |
| 2026-04-27 15:20 | 45.98772 | -112.05582 | 17026 ft | 345 kts | 107° |
| 2026-04-27 15:21 | 45.98191 | -112.02306 | 16701 ft | 335 kts | 103° |
| 2026-04-27 15:21 | 45.97887 | -111.98983 | 16153 ft | 334 kts | 96° |
| 2026-04-27 15:21 | 45.97711 | -111.95672 | 15656 ft | 330 kts | 95° |
| 2026-04-27 15:21 | 45.97552 | -111.92401 | 15177 ft | 326 kts | 95° |
| 2026-04-27 15:22 | 45.97379 | -111.89171 | 14699 ft | 322 kts | 95° |
| 2026-04-27 15:22 | 45.97190 | -111.85978 | 14229 ft | 319 kts | 95° |
| 2026-04-27 15:22 | 45.96989 | -111.82813 | 13741 ft | 316 kts | 95° |
| 2026-04-27 15:22 | 45.96785 | -111.79688 | 13222 ft | 313 kts | 95° |
| 2026-04-27 15:23 | 45.96581 | -111.76598 | 12757 ft | 308 kts | 95° |
| 2026-04-27 15:23 | 45.96377 | -111.73553 | 12316 ft | 303 kts | 96° |
| 2026-04-27 15:23 | 45.96173 | -111.70557 | 11848 ft | 300 kts | 96° |
| 2026-04-27 15:23 | 45.95971 | -111.67585 | 11379 ft | 297 kts | 96° |
| 2026-04-27 15:24 | 45.95770 | -111.64645 | 10927 ft | 294 kts | 96° |
| 2026-04-27 15:24 | 45.95571 | -111.61732 | 10472 ft | 292 kts | 96° |
| 2026-04-27 15:24 | 45.95373 | -111.58854 | 10133 ft | 285 kts | 96° |
| 2026-04-27 15:24 | 45.95182 | -111.56081 | 9881 ft | 276 kts | 96° |
| 2026-04-27 15:25 | 45.94981 | -111.53341 | 9443 ft | 274 kts | 98° |
| 2026-04-27 15:25 | 45.94568 | -111.50691 | 9041 ft | 270 kts | 105° |
| 2026-04-27 15:25 | 45.94058 | -111.48105 | 8644 ft | 268 kts | 106° |
| 2026-04-27 15:25 | 45.93550 | -111.45546 | 8250 ft | 265 kts | 105° |
| 2026-04-27 15:26 | 45.93061 | -111.43004 | 7852 ft | 263 kts | 105° |
| 2026-04-27 15:26 | 45.92592 | -111.40511 | 7686 ft | 252 kts | 105° |
| 2026-04-27 15:26 | 45.92147 | -111.38133 | 7552 ft | 241 kts | 105° |
| 2026-04-27 15:26 | 45.91729 | -111.35886 | 7442 ft | 231 kts | 105° |
| 2026-04-27 15:27 | 45.91105 | -111.33840 | 7285 ft | 220 kts | 128° |
| 2026-04-27 15:27 | 45.90093 | -111.32290 | 7138 ft | 207 kts | 135° |
| 2026-04-27 15:27 | 45.89078 | -111.30901 | 6915 ft | 196 kts | 136° |
| 2026-04-27 15:27 | 45.88116 | -111.29585 | 6735 ft | 186 kts | 135° |
| 2026-04-27 15:28 | 45.87223 | -111.28354 | 6550 ft | 170 kts | 135° |
| 2026-04-27 15:28 | 45.86408 | -111.27222 | 6404 ft | 157 kts | 135° |
| 2026-04-27 15:28 | 45.85657 | -111.26177 | 6320 ft | 140 kts | 135° |
| 2026-04-27 15:28 | 45.84986 | -111.25242 | 6100 ft | 129 kts | 135° |
| 2026-04-27 15:29 | 45.84340 | -111.24344 | 5951 ft | 132 kts | 135° |
| 2026-04-27 15:29 | 45.83677 | -111.23420 | 5742 ft | 133 kts | 135° |
| 2026-04-27 15:29 | 45.83011 | -111.22493 | 5591 ft | 134 kts | 135° |
| 2026-04-27 15:29 | 45.82338 | -111.21557 | 5409 ft | 135 kts | 135° |
| 2026-04-27 15:30 | 45.81660 | -111.20614 | 5252 ft | 136 kts | 136° |
| 2026-04-27 15:30 | 45.80976 | -111.19665 | 5078 ft | 137 kts | 136° |
| 2026-04-27 15:30 | 45.80299 | -111.18719 | 4895 ft | 135 kts | 136° |
| 2026-04-27 15:30 | 45.79624 | -111.17777 | 4680 ft | 135 kts | 136° |
| 2026-04-27 15:31 | 45.78954 | -111.16846 | 4498 ft | 133 kts | 137° |
| 2026-04-27 15:31 | 45.78315 | -111.15970 | 4445 ft | 115 kts | 135° |
| 2026-04-27 15:31 | 45.77851 | -111.15320 | 4455 ft | 71 kts | 135° |
| 2026-04-27 15:31 | 45.77593 | -111.14961 | 4461 ft | 16 kts | 135° |
| 2026-04-27 15:32 | 45.77511 | -111.14938 | 4462 ft | 13 kts | 213° |
| 2026-04-27 15:32 | 45.77446 | -111.15032 | 4461 ft | 14 kts | 225° |
| 2026-04-27 15:32 | 45.77428 | -111.15119 | 4461 ft | 9 kts | 295° |
| 2026-04-27 15:32 | 45.77486 | -111.15215 | 4459 ft | 15 kts | 316° |
| 2026-04-27 15:33 | 45.77564 | -111.15323 | 4458 ft | 16 kts | 316° |
| 2026-04-27 15:33 | 45.77639 | -111.15428 | 4456 ft | 15 kts | 315° |
| 2026-04-27 15:33 | 45.77712 | -111.15530 | 4454 ft | 14 kts | 315° |
| 2026-04-27 15:33 | 45.77781 | -111.15628 | 4453 ft | 14 kts | 315° |
| 2026-04-27 15:34 | 45.77831 | -111.15736 | 4452 ft | 13 kts | 271° |
| 2026-04-27 15:34 | 45.77813 | -111.15852 | 4452 ft | 11 kts | 250° |
| 2026-04-27 15:34 | 45.77797 | -111.15939 | 4452 ft | 7 kts | 259° |
| 2026-04-27 15:34 | 45.77796 | -111.15945 | 4452 ft | 0 kts | 259° |